createdAt,value
2022-10-01T00:00:31.443Z,24.17
2022-10-01T00:03:17.351Z,22.92
2022-10-01T00:06:11.200Z,21.05
2022-10-01T00:08:57.131Z,22.02
2022-10-01T00:11:42.118Z,25.92
2022-10-01T00:14:27.540Z,25.08
2022-10-01T00:17:12.380Z,26.95
2022-10-01T00:19:57.155Z,27.88
2022-10-01T00:22:42.212Z,27.10
2022-10-01T00:25:27.643Z,22.88
2022-10-01T00:28:12.563Z,23.20
2022-10-01T00:30:57.835Z,23.88
2022-10-01T00:33:42.968Z,26.95
2022-10-01T00:36:29.968Z,24.98
2022-10-01T00:39:15.182Z,23.63
2022-10-01T00:42:00.202Z,21.33
2022-10-01T00:44:45.635Z,24.45
2022-10-01T00:47:42.468Z,18.50
2022-10-01T00:50:33.113Z,23.52
2022-10-01T00:53:20.562Z,24.02
2022-10-01T00:56:06.837Z,21.65
2022-10-01T00:58:53.579Z,22.52
2022-10-01T01:01:38.777Z,29.52
2022-10-01T01:04:23.829Z,33.30
2022-10-01T01:07:09.521Z,36.42
2022-10-01T01:09:55.268Z,36.30
2022-10-01T01:13:04.065Z,33.45
2022-10-01T01:16:07.496Z,28.88
2022-10-01T01:19:04.031Z,25.73
2022-10-01T01:21:55.968Z,23.55
2022-10-01T01:24:47.360Z,22.92
2022-10-01T01:27:37.734Z,24.95
2022-10-01T01:30:22.874Z,24.58
2022-10-01T01:33:17.604Z,28.02
2022-10-01T01:36:15.729Z,32.72
2022-10-01T01:39:04.430Z,27.70
2022-10-01T01:41:53.266Z,37.40
2022-10-01T01:44:40.572Z,31.90
2022-10-01T01:47:29.009Z,28.48
2022-10-01T01:50:15.857Z,27.90
2022-10-01T01:53:01.596Z,30.02
2022-10-01T01:55:48.677Z,31.85
2022-10-01T01:58:38.026Z,27.98
2022-10-01T02:01:40.427Z,32.25
2022-10-01T02:04:44.201Z,34.38
2022-10-01T02:08:03.114Z,32.28
2022-10-01T02:10:54.675Z,33.80
2022-10-01T02:13:39.365Z,36.72
2022-10-01T02:16:38.278Z,39.85
2022-10-01T02:19:34.835Z,43.60
2022-10-01T02:22:39.763Z,39.97
2022-10-01T02:25:30.707Z,35.63
2022-10-01T02:28:22.103Z,30.23
2022-10-01T02:31:09.374Z,28.35
2022-10-01T02:33:56.254Z,27.33
2022-10-01T02:36:44.047Z,25.33
2022-10-01T02:39:32.539Z,30.20
2022-10-01T02:42:20.046Z,28.00
2022-10-01T02:45:07.026Z,28.88
2022-10-01T02:48:08.523Z,30.42
2022-10-01T02:51:03.524Z,29.33
2022-10-01T02:53:55.146Z,25.77
2022-10-01T02:56:59.255Z,24.52
2022-10-01T02:59:44.141Z,21.38
2022-10-01T03:02:30.857Z,23.27
2022-10-01T03:05:17.351Z,23.05
2022-10-01T03:08:02.405Z,24.65
2022-10-01T03:10:47.228Z,19.58
2022-10-01T03:13:32.059Z,26.08
2022-10-01T03:16:16.904Z,24.27
2022-10-01T03:19:02.205Z,24.13
2022-10-01T03:21:47.760Z,24.45
2022-10-01T03:24:32.388Z,27.23
2022-10-01T03:27:17.807Z,26.52
2022-10-01T03:30:03.242Z,33.10
2022-10-01T03:32:48.268Z,33.30
2022-10-01T03:35:33.514Z,30.75
2022-10-01T03:38:18.355Z,37.13
2022-10-01T03:41:03.332Z,34.38
2022-10-01T03:43:48.461Z,33.40
2022-10-01T03:46:33.534Z,34.28
2022-10-01T03:49:18.338Z,25.70
2022-10-01T03:52:05.829Z,24.48
2022-10-01T03:54:51.067Z,25.83
2022-10-01T03:57:35.858Z,23.05
2022-10-01T04:00:20.974Z,24.60
2022-10-01T04:03:06.581Z,25.40
2022-10-01T04:05:51.536Z,20.95
2022-10-01T04:08:37.649Z,20.33
2022-10-01T04:11:22.381Z,23.48
2022-10-01T04:14:08.143Z,21.77
2022-10-01T04:16:52.892Z,23.25
2022-10-01T04:19:37.893Z,21.10
2022-10-01T04:22:22.863Z,21.77
2022-10-01T04:25:10.380Z,18.65
2022-10-01T04:28:03.560Z,19.73
2022-10-01T04:30:48.518Z,18.30
2022-10-01T04:33:33.427Z,18.48
2022-10-01T04:36:18.372Z,17.58
2022-10-01T04:39:03.337Z,21.08
2022-10-01T04:41:48.869Z,18.83
2022-10-01T04:44:33.732Z,18.48
2022-10-01T04:47:18.676Z,17.63
2022-10-01T04:50:04.065Z,18.50
2022-10-01T04:52:49.850Z,19.63
2022-10-01T04:55:34.879Z,17.02
2022-10-01T04:58:19.681Z,16.20
2022-10-01T05:01:04.993Z,15.70
2022-10-01T05:03:49.853Z,18.58
2022-10-01T05:06:34.790Z,16.20
2022-10-01T05:09:19.843Z,17.42
2022-10-01T05:12:05.702Z,15.45
2022-10-01T05:14:54.380Z,16.02
2022-10-01T05:17:39.258Z,15.38
2022-10-01T05:20:26.951Z,15.25
2022-10-01T05:23:12.081Z,16.77
2022-10-01T05:25:56.946Z,12.55
2022-10-01T05:28:43.834Z,13.48
2022-10-01T05:31:29.119Z,15.32
2022-10-01T05:34:13.976Z,17.33
2022-10-01T05:36:59.141Z,14.55
2022-10-01T05:39:43.795Z,15.30
2022-10-01T05:42:28.897Z,18.45
2022-10-01T05:45:13.890Z,13.80
2022-10-01T05:48:01.107Z,17.60
2022-10-01T05:50:46.692Z,16.50
2022-10-01T05:53:32.323Z,15.40
2022-10-01T05:56:17.219Z,16.40
2022-10-01T05:59:02.556Z,19.88
2022-10-01T06:01:47.650Z,19.20
2022-10-01T06:04:34.054Z,19.83
2022-10-01T06:07:21.554Z,22.23
2022-10-01T06:10:06.913Z,19.48
2022-10-01T06:12:51.651Z,18.98
2022-10-01T06:15:38.480Z,20.25
2022-10-01T06:18:23.262Z,19.45
2022-10-01T06:21:09.487Z,18.75
2022-10-01T06:23:54.238Z,17.23
2022-10-01T06:26:39.003Z,18.58
2022-10-01T06:29:23.963Z,16.30
2022-10-01T06:32:12.839Z,14.68
2022-10-01T06:34:57.495Z,17.85
2022-10-01T06:37:42.288Z,16.38
2022-10-01T06:40:31.587Z,17.27
2022-10-01T06:43:16.127Z,17.20
2022-10-01T06:46:02.714Z,17.75
2022-10-01T06:48:47.677Z,14.15
2022-10-01T06:51:51.049Z,16.02
2022-10-01T06:54:35.953Z,17.40
2022-10-01T06:57:21.015Z,15.50
2022-10-01T07:00:06.470Z,17.13
2022-10-01T07:02:51.399Z,15.25
2022-10-01T07:05:37.847Z,14.55
2022-10-01T07:08:23.286Z,16.83
2022-10-01T07:11:08.293Z,13.13
2022-10-01T07:13:54.682Z,13.90
2022-10-01T07:16:39.686Z,10.95
2022-10-01T07:19:24.473Z,11.93
2022-10-01T07:22:09.586Z,10.45
2022-10-01T07:24:54.396Z,9.98
2022-10-01T07:27:39.960Z,10.93
2022-10-01T07:30:26.260Z,10.13
2022-10-01T07:33:11.446Z,11.27
2022-10-01T07:36:00.561Z,10.82
2022-10-01T07:38:48.121Z,10.93
2022-10-01T07:41:33.448Z,10.90
2022-10-01T07:44:19.335Z,9.85
2022-10-01T07:47:04.166Z,13.65
2022-10-01T07:49:49.030Z,12.73
2022-10-01T07:52:34.103Z,12.82
2022-10-01T07:55:20.440Z,11.55
2022-10-01T07:58:05.230Z,13.80
2022-10-01T08:00:52.280Z,10.50
2022-10-01T08:03:37.206Z,9.88
2022-10-01T08:06:25.601Z,11.00
2022-10-01T08:09:10.630Z,10.18
2022-10-01T08:11:55.887Z,11.52
2022-10-01T08:14:40.744Z,14.25
2022-10-01T08:17:29.323Z,10.85
2022-10-01T08:20:15.461Z,12.23
2022-10-01T08:23:09.743Z,12.75
2022-10-01T08:25:59.867Z,11.90
2022-10-01T08:28:44.391Z,13.07
2022-10-01T08:31:33.122Z,11.73
2022-10-01T08:34:18.587Z,13.77
2022-10-01T08:37:03.552Z,12.30
2022-10-01T08:39:48.633Z,13.95
2022-10-01T08:42:49.364Z,10.77
2022-10-01T08:45:44.416Z,11.52
2022-10-01T08:48:41.850Z,12.45
2022-10-01T08:51:44.543Z,12.55
2022-10-01T08:54:37.220Z,14.75
2022-10-01T08:57:29.200Z,15.07
2022-10-01T09:00:15.843Z,13.25
2022-10-01T09:03:05.938Z,14.07
2022-10-01T09:05:55.918Z,14.52
2022-10-01T09:09:09.919Z,14.32
2022-10-01T09:12:32.187Z,14.60
2022-10-01T09:15:42.932Z,14.13
2022-10-01T09:18:27.638Z,13.63
2022-10-01T09:21:27.583Z,14.32
2022-10-01T09:24:24.397Z,16.02
2022-10-01T09:27:18.122Z,16.98
2022-10-01T09:30:10.918Z,16.98
2022-10-01T09:33:02.737Z,13.52
2022-10-01T09:36:04.523Z,14.77
2022-10-01T09:39:03.452Z,14.65
2022-10-01T09:41:48.318Z,12.43
2022-10-01T09:44:33.944Z,12.38
2022-10-01T09:47:21.731Z,19.00
2022-10-01T09:50:12.468Z,16.02
2022-10-01T09:52:59.734Z,14.38
2022-10-01T09:55:51.829Z,14.82
2022-10-01T09:58:40.395Z,16.25
2022-10-01T10:01:59.751Z,15.45
2022-10-01T10:04:44.541Z,14.32
2022-10-01T10:07:31.870Z,15.88
2022-10-01T10:10:24.630Z,19.45
2022-10-01T10:13:14.122Z,17.38
2022-10-01T10:15:59.451Z,16.00
2022-10-01T10:18:51.474Z,16.80
2022-10-01T10:21:37.237Z,13.57
2022-10-01T10:24:31.448Z,14.57
2022-10-01T10:27:35.632Z,15.95
2022-10-01T10:30:24.439Z,15.20
2022-10-01T10:33:13.964Z,15.52
2022-10-01T10:36:02.568Z,12.30
2022-10-01T10:38:50.421Z,13.50
2022-10-01T10:41:35.462Z,12.07
2022-10-01T10:44:23.643Z,10.85
2022-10-01T10:47:14.218Z,13.32
2022-10-01T10:50:03.725Z,9.52
2022-10-01T10:52:48.783Z,10.02
2022-10-01T10:55:33.967Z,10.73
2022-10-01T10:58:18.679Z,11.18
2022-10-01T11:01:12.631Z,9.63
2022-10-01T11:04:00.393Z,9.70
2022-10-01T11:06:54.869Z,9.25
2022-10-01T11:09:58.455Z,7.45
2022-10-01T11:13:01.384Z,7.60
2022-10-01T11:15:51.997Z,5.88
2022-10-01T11:19:12.059Z,7.70
2022-10-01T11:22:26.805Z,5.53
2022-10-01T11:25:36.255Z,5.40
2022-10-01T11:28:24.344Z,7.05
2022-10-01T11:31:29.886Z,6.88
2022-10-01T11:34:33.488Z,6.63
2022-10-01T11:37:43.408Z,8.48
2022-10-01T11:40:40.920Z,6.70
2022-10-01T11:43:32.473Z,7.60
2022-10-01T11:46:55.889Z,5.53
2022-10-01T11:49:52.382Z,6.78
2022-10-01T11:52:41.608Z,7.05
2022-10-01T11:55:54.534Z,6.25
2022-10-01T11:58:50.245Z,4.88
2022-10-01T12:02:17.821Z,6.65
2022-10-01T12:05:05.352Z,6.07
2022-10-01T12:08:31.273Z,7.55
2022-10-01T12:11:28.795Z,6.00
2022-10-01T12:14:21.168Z,5.22
2022-10-01T12:17:27.920Z,6.38
2022-10-01T12:20:24.441Z,6.20
2022-10-01T12:23:35.494Z,7.22
2022-10-01T12:26:34.174Z,4.93
2022-10-01T12:29:32.064Z,5.20
2022-10-01T12:32:29.392Z,6.57
2022-10-01T12:35:36.783Z,7.25
2022-10-01T12:38:30.656Z,5.40
2022-10-01T12:41:43.370Z,6.22
2022-10-01T12:44:36.090Z,6.30
2022-10-01T12:47:38.591Z,5.28
2022-10-01T12:50:38.477Z,5.15
2022-10-01T12:53:38.225Z,4.38
2022-10-01T12:56:39.051Z,5.05
2022-10-01T12:59:34.587Z,5.38
2022-10-01T13:02:45.360Z,4.65
2022-10-01T13:06:14.078Z,4.47
2022-10-01T13:09:06.317Z,7.22
2022-10-01T13:12:28.433Z,4.78
2022-10-01T13:15:27.196Z,4.78
2022-10-01T13:18:41.204Z,5.50
2022-10-01T13:21:53.766Z,6.05
2022-10-01T13:24:48.253Z,4.55
2022-10-01T13:28:02.956Z,4.53
2022-10-01T13:31:00.334Z,4.25
2022-10-01T13:33:56.136Z,4.40
2022-10-01T13:36:40.899Z,6.00
2022-10-01T13:39:36.592Z,4.35
2022-10-01T13:42:27.143Z,3.97
2022-10-01T13:45:40.156Z,5.13
2022-10-01T13:48:34.148Z,4.82
2022-10-01T13:51:19.709Z,5.72
2022-10-01T13:54:11.572Z,6.10
2022-10-01T13:57:10.731Z,9.65
2022-10-01T14:00:20.644Z,6.82
2022-10-01T14:03:33.060Z,7.55
2022-10-01T14:06:30.069Z,6.40
2022-10-01T14:09:23.859Z,6.32
2022-10-01T14:12:52.348Z,7.00
2022-10-01T14:15:59.507Z,5.25
2022-10-01T14:18:48.214Z,5.20
2022-10-01T14:21:51.867Z,6.43
2022-10-01T14:25:01.181Z,7.47
2022-10-01T14:28:19.834Z,6.60
2022-10-01T14:31:44.096Z,6.45
2022-10-01T14:34:59.379Z,7.00
2022-10-01T14:37:44.860Z,7.97
2022-10-01T14:40:41.399Z,6.80
2022-10-01T14:43:28.820Z,7.43
2022-10-01T14:46:18.472Z,11.63
2022-10-01T14:49:03.659Z,7.90
2022-10-01T14:51:51.163Z,7.60
2022-10-01T14:54:52.485Z,8.82
2022-10-01T14:57:48.775Z,7.63
2022-10-01T15:00:34.159Z,11.30
2022-10-01T15:03:19.423Z,10.68
2022-10-01T15:06:11.788Z,9.15
2022-10-01T15:09:11.169Z,9.38
2022-10-01T15:11:56.088Z,10.80
2022-10-01T15:14:42.171Z,11.88
2022-10-01T15:17:27.149Z,12.27
2022-10-01T15:20:13.205Z,11.38
2022-10-01T15:23:01.393Z,15.15
2022-10-01T15:25:47.326Z,14.25
2022-10-01T15:28:35.235Z,14.75
2022-10-01T15:31:21.356Z,14.98
2022-10-01T15:34:10.452Z,15.43
2022-10-01T15:36:56.234Z,14.25
2022-10-01T15:39:47.062Z,13.65
2022-10-01T15:42:35.903Z,17.05
2022-10-01T15:45:25.180Z,19.40
2022-10-01T15:48:39.668Z,20.35
2022-10-01T15:51:27.549Z,20.98
2022-10-01T15:54:14.891Z,24.00
2022-10-01T15:57:01.430Z,25.27
2022-10-01T15:59:48.176Z,27.20
2022-10-01T16:02:33.055Z,34.55
2022-10-01T16:05:21.960Z,36.53
2022-10-01T16:08:06.797Z,37.42
2022-10-01T16:11:31.082Z,35.22
2022-10-01T16:14:21.682Z,32.60
2022-10-01T16:17:19.424Z,30.90
2022-10-01T16:20:13.651Z,27.77
2022-10-01T16:23:35.687Z,28.88
2022-10-01T16:26:29.424Z,29.30
2022-10-01T16:29:14.134Z,34.78
2022-10-01T16:32:00.893Z,40.63
2022-10-01T16:34:46.082Z,39.00
2022-10-01T16:37:31.106Z,39.95
2022-10-01T16:40:18.668Z,40.35
2022-10-01T16:43:03.494Z,34.40
2022-10-01T16:45:48.535Z,31.40
2022-10-01T16:48:33.512Z,29.10
2022-10-01T16:51:20.154Z,28.30
2022-10-01T16:54:04.781Z,29.48
2022-10-01T16:56:51.647Z,29.00
2022-10-01T16:59:36.376Z,28.13
2022-10-01T17:02:21.312Z,26.83
2022-10-01T17:05:16.862Z,26.35
2022-10-01T17:08:10.278Z,25.67
2022-10-01T17:10:58.132Z,20.98
2022-10-01T17:13:42.956Z,20.73
2022-10-01T17:16:28.955Z,18.85
2022-10-01T17:19:14.182Z,18.35
2022-10-01T17:21:58.876Z,18.48
2022-10-01T17:24:43.996Z,18.52
2022-10-01T17:27:29.054Z,19.40
2022-10-01T17:30:14.819Z,18.65
2022-10-01T17:33:00.855Z,19.05
2022-10-01T17:35:53.987Z,18.23
2022-10-01T17:38:39.873Z,19.58
2022-10-01T17:41:24.948Z,21.42
2022-10-01T17:44:09.820Z,19.42
2022-10-01T17:46:54.904Z,19.63
2022-10-01T17:49:42.556Z,20.10
2022-10-01T17:52:27.179Z,18.45
2022-10-01T17:55:12.012Z,20.33
2022-10-01T17:57:56.987Z,20.65
2022-10-01T18:00:41.939Z,18.83
2022-10-01T18:03:26.831Z,21.10
2022-10-01T18:06:13.663Z,19.42
2022-10-01T18:08:58.956Z,19.15
2022-10-01T18:11:43.701Z,20.55
2022-10-01T18:14:28.897Z,20.23
2022-10-01T18:17:13.682Z,20.25
2022-10-01T18:19:58.845Z,20.92
2022-10-01T18:22:43.700Z,21.48
2022-10-01T18:25:28.644Z,21.83
2022-10-01T18:28:13.678Z,24.45
2022-10-01T18:31:11.048Z,22.10
2022-10-01T18:34:02.497Z,22.75
2022-10-01T18:37:04.398Z,25.25
2022-10-01T18:39:59.535Z,26.70
2022-10-01T18:43:08.282Z,27.40
2022-10-01T18:46:14.691Z,28.45
2022-10-01T18:49:21.198Z,29.38
2022-10-01T18:52:24.586Z,31.40
2022-10-01T18:55:42.983Z,28.25
2022-10-01T18:58:36.320Z,28.38
2022-10-01T19:01:21.421Z,30.92
2022-10-01T19:04:22.092Z,31.05
2022-10-01T19:07:28.785Z,32.17
2022-10-01T19:10:29.092Z,31.73
2022-10-01T19:13:44.357Z,33.63
2022-10-01T19:16:35.596Z,33.45
2022-10-01T19:19:23.315Z,36.08
2022-10-01T19:22:21.923Z,28.70
2022-10-01T19:25:32.989Z,24.98
2022-10-01T19:28:51.629Z,24.88
2022-10-01T19:31:55.691Z,25.05
2022-10-01T19:34:46.012Z,25.77
2022-10-01T19:37:33.667Z,24.80
2022-10-01T19:40:44.428Z,21.60
2022-10-01T19:43:49.245Z,20.50
2022-10-01T19:46:43.103Z,20.95
2022-10-01T19:49:35.196Z,25.02
2022-10-01T19:52:22.105Z,24.30
2022-10-01T19:55:18.911Z,24.83
2022-10-01T19:58:20.034Z,19.10
2022-10-01T20:01:05.589Z,23.63
2022-10-01T20:04:00.294Z,30.00
2022-10-01T20:06:46.385Z,28.05
2022-10-01T20:10:05.868Z,27.88
2022-10-01T20:13:24.882Z,23.83
2022-10-01T20:16:35.668Z,25.15
2022-10-01T20:19:48.706Z,26.88
2022-10-01T20:22:47.306Z,24.60
2022-10-01T20:26:00.057Z,31.92
2022-10-01T20:29:19.721Z,28.33
2022-10-01T20:32:35.843Z,30.48
2022-10-01T20:35:50.099Z,27.00
2022-10-01T20:38:41.975Z,28.05
2022-10-01T20:41:29.423Z,23.92
2022-10-01T20:44:21.924Z,28.70
2022-10-01T20:47:35.974Z,26.63
2022-10-01T20:50:25.819Z,24.17
2022-10-01T20:53:38.139Z,21.33
2022-10-01T20:56:29.931Z,21.05
2022-10-01T20:59:22.880Z,21.50
2022-10-01T21:02:34.407Z,19.73
2022-10-01T21:05:25.797Z,19.00
2022-10-01T21:08:17.356Z,21.05
2022-10-01T21:11:10.931Z,19.73
2022-10-01T21:14:18.490Z,20.50
2022-10-01T21:17:06.139Z,26.88
2022-10-01T21:20:13.037Z,26.02
2022-10-01T21:23:28.715Z,22.05
2022-10-01T21:29:21.502Z,23.05
2022-10-01T21:32:32.929Z,24.42
2022-10-01T21:35:20.516Z,22.45
2022-10-01T21:38:18.707Z,21.52
2022-10-01T21:41:13.118Z,21.48
2022-10-01T21:44:10.824Z,23.45
2022-10-01T21:47:16.746Z,24.30
2022-10-01T21:50:11.489Z,24.52
2022-10-01T21:53:15.106Z,23.80
2022-10-01T21:56:18.134Z,22.98
2022-10-01T21:59:23.877Z,23.58
2022-10-01T22:02:57.097Z,22.63
2022-10-01T22:06:12.192Z,22.00
2022-10-01T22:09:22.148Z,21.65
2022-10-01T22:12:07.346Z,22.05
2022-10-01T22:14:53.202Z,23.10
2022-10-01T22:17:38.966Z,24.20
2022-10-01T22:20:28.566Z,27.90
2022-10-01T22:23:17.026Z,24.30
2022-10-01T22:26:10.175Z,21.95
2022-10-01T22:28:56.082Z,21.58
2022-10-01T22:31:42.341Z,21.80
2022-10-01T22:34:41.091Z,19.35
2022-10-01T22:37:33.470Z,23.15
2022-10-01T22:40:28.688Z,23.55
2022-10-01T22:43:14.060Z,27.48
2022-10-01T22:46:20.779Z,29.05
2022-10-01T22:49:33.218Z,26.52
2022-10-01T22:52:57.891Z,23.63
2022-10-01T22:56:11.757Z,23.85
2022-10-01T22:59:08.109Z,25.42
2022-10-01T23:02:25.672Z,23.58
2022-10-01T23:05:48.340Z,27.30
2022-10-01T23:08:49.828Z,25.92
2022-10-01T23:11:34.495Z,27.85
2022-10-01T23:14:34.392Z,21.27
2022-10-01T23:17:35.733Z,23.80
2022-10-01T23:20:32.389Z,21.25
2022-10-01T23:23:22.816Z,23.00
2022-10-01T23:26:31.572Z,21.50
2022-10-01T23:29:28.676Z,22.67
2022-10-01T23:32:31.638Z,21.05
2022-10-01T23:35:21.244Z,23.00
2022-10-01T23:38:31.810Z,23.83
2022-10-01T23:41:25.061Z,26.60
2022-10-01T23:44:21.423Z,25.13
2022-10-01T23:47:12.003Z,25.38
2022-10-01T23:49:59.095Z,23.75
2022-10-01T23:52:53.452Z,24.35
2022-10-01T23:56:03.571Z,22.70
2022-10-01T23:59:04.488Z,25.30
